Time;durP1;ratioP1;P1;durP2;ratioP2;P2;SDS_P1;SDS_P2;PMS_P1;PMS_P2;Temp;Humidity;BMP_temperature;BMP_pressure;BME280_temperature;BME280_humidity;BME280_pressure;Samples;Min_cycle;Max_cycle;Signal;HPM_P1;HPM_P2
2022/10/02 00:02:02;;;;;;;9.50;9.20;;;12.10;99.90;;;;;;5164683;27;20293;-81
2022/10/02 00:04:39;;;;;;;9.50;9.20;;;12.10;99.90;;;;;;5170654;27;20226;-78
2022/10/02 00:07:17;;;;;;;9.37;9.07;;;12.20;99.90;;;;;;5167479;27;20231;-79
2022/10/02 00:09:50;;;;;;;9.20;8.90;;;12.20;99.90;;;;;;5165114;27;20223;-81
2022/10/02 00:12:22;;;;;;;9.20;8.90;;;12.20;99.90;;;;;;5165834;27;20211;-79
2022/10/02 00:14:55;;;;;;;9.03;8.73;;;12.20;99.90;;;;;;5164759;27;20239;-80
2022/10/02 00:17:28;;;;;;;9.27;8.97;;;12.30;99.90;;;;;;5165458;27;20232;-79
2022/10/02 00:19:56;;;;;;;9.17;8.87;;;12.30;99.90;;;;;;5164235;27;20251;-81
2022/10/02 00:22:49;;;;;;;9.30;9.00;;;12.30;99.90;;;;;;5165840;27;20227;-80
2022/10/02 00:25:26;;;;;;;9.10;8.80;;;12.30;99.90;;;;;;5164694;27;20590;-79
2022/10/02 00:28:25;;;;;;;9.13;8.83;;;12.40;99.90;;;;;;5165609;27;20246;-80
2022/10/02 00:31:26;;;;;;;9.10;8.80;;;12.40;99.90;;;;;;5167572;27;20262;-80
2022/10/02 00:34:09;;;;;;;8.97;8.67;;;12.40;99.90;;;;;;5152491;27;20305;-80
2022/10/02 00:36:46;;;;;;;9.20;8.90;;;12.40;99.90;;;;;;5164784;27;20231;-80
2022/10/02 00:39:32;;;;;;;9.17;8.87;;;12.40;99.90;;;;;;5164695;27;20243;-79
2022/10/02 00:42:33;;;;;;;8.87;8.57;;;12.40;99.90;;;;;;5163414;27;20269;-79
2022/10/02 00:45:41;;;;;;;9.20;8.90;;;12.30;99.90;;;;;;5162622;27;20233;-79
2022/10/02 00:48:44;;;;;;;8.93;8.63;;;12.30;99.90;;;;;;5162696;27;20716;-79
2022/10/02 00:51:25;;;;;;;9.10;8.80;;;12.30;99.90;;;;;;5162894;27;20269;-79
2022/10/02 00:54:05;;;;;;;9.30;9.00;;;12.30;99.90;;;;;;5163662;27;20227;-79
2022/10/02 00:56:42;;;;;;;9.10;8.80;;;12.30;99.90;;;;;;5162771;27;20221;-79
2022/10/02 00:59:43;;;;;;;9.20;8.90;;;12.30;99.90;;;;;;5163714;27;20235;-79
2022/10/02 01:02:49;;;;;;;9.00;8.70;;;12.30;99.90;;;;;;5166745;27;20235;-79
2022/10/02 01:05:17;;;;;;;9.10;8.80;;;12.30;99.90;;;;;;5163650;27;20253;-79
2022/10/02 01:07:50;;;;;;;9.10;8.80;;;12.30;99.90;;;;;;5162901;27;20223;-79
2022/10/02 01:10:21;;;;;;;8.90;8.60;;;12.30;99.90;;;;;;5162543;27;20263;-78
2022/10/02 01:12:51;;;;;;;9.10;8.80;;;12.30;99.90;;;;;;5163209;27;20231;-79
2022/10/02 01:15:21;;;;;;;9.10;8.80;;;12.30;99.90;;;;;;5161795;27;20262;-79
2022/10/02 01:17:52;;;;;;;9.10;8.80;;;12.30;99.90;;;;;;5163143;27;20235;-78
2022/10/02 01:20:24;;;;;;;9.20;8.90;;;12.20;99.90;;;;;;5162651;27;20231;-79
2022/10/02 01:23:00;;;;;;;9.03;8.73;;;12.20;99.90;;;;;;5162103;27;20228;-78
2022/10/02 01:25:30;;;;;;;9.30;9.00;;;12.20;99.90;;;;;;5161785;27;20239;-79
2022/10/02 01:27:57;;;;;;;9.13;8.83;;;12.20;99.90;;;;;;5162454;27;20310;-79
2022/10/02 01:30:25;;;;;;;9.03;8.73;;;12.20;99.90;;;;;;5161948;27;20235;-79
2022/10/02 01:32:56;;;;;;;9.10;8.80;;;12.20;99.90;;;;;;5167165;27;20258;-79
2022/10/02 01:35:30;;;;;;;8.90;8.60;;;12.20;99.90;;;;;;5163074;27;20238;-79
2022/10/02 01:37:59;;;;;;;9.00;8.70;;;12.20;99.90;;;;;;5163055;27;20223;-79
2022/10/02 01:40:31;;;;;;;9.30;9.00;;;12.20;99.90;;;;;;5162448;27;20698;-79
2022/10/02 01:43:02;;;;;;;9.23;8.93;;;12.20;99.90;;;;;;5163191;27;20300;-79
2022/10/02 01:45:47;;;;;;;9.00;8.70;;;12.20;99.90;;;;;;5162252;27;20223;-79
2022/10/02 01:48:30;;;;;;;9.23;8.93;;;12.30;99.90;;;;;;5162960;27;20332;-79
2022/10/02 01:51:20;;;;;;;9.20;8.90;;;12.30;99.90;;;;;;5162649;27;20239;-79
2022/10/02 01:53:54;;;;;;;9.27;8.97;;;12.30;99.90;;;;;;5162653;27;20216;-79
2022/10/02 01:56:35;;;;;;;9.10;8.80;;;12.30;99.90;;;;;;5161861;27;20227;-79
2022/10/02 01:59:13;;;;;;;9.20;8.90;;;12.30;99.90;;;;;;5167517;27;20251;-79
2022/10/02 02:01:53;;;;;;;9.20;8.90;;;12.30;99.90;;;;;;5161273;27;20241;-79
2022/10/02 02:04:25;;;;;;;9.10;8.80;;;12.30;99.90;;;;;;5162097;27;20231;-79
2022/10/02 02:07:01;;;;;;;9.10;8.80;;;12.30;99.90;;;;;;5162045;27;20234;-79
2022/10/02 02:09:38;;;;;;;9.40;9.10;;;12.30;99.90;;;;;;5162137;27;20702;-79
2022/10/02 02:12:15;;;;;;;9.00;8.70;;;12.30;99.90;;;;;;5161898;27;20242;-79
2022/10/02 02:14:48;;;;;;;9.20;8.90;;;12.30;99.90;;;;;;5161389;27;20265;-79
2022/10/02 02:17:24;;;;;;;9.00;8.70;;;12.40;99.90;;;;;;5161445;27;20239;-79
2022/10/02 02:20:01;;;;;;;9.30;9.00;;;12.40;99.90;;;;;;5162270;27;20233;-79
2022/10/02 02:22:33;;;;;;;9.10;8.80;;;12.40;99.90;;;;;;5162742;27;20215;-79
2022/10/02 02:25:07;;;;;;;9.10;8.80;;;12.40;99.90;;;;;;5161774;27;20233;-79
2022/10/02 02:27:44;;;;;;;9.10;8.80;;;12.50;99.90;;;;;;5162334;27;20227;-79
2022/10/02 02:30:14;;;;;;;9.10;8.80;;;12.40;99.90;;;;;;5162406;27;20227;-78
2022/10/02 02:32:49;;;;;;;9.03;8.73;;;12.40;99.90;;;;;;5162253;27;20325;-79
2022/10/02 02:35:22;;;;;;;9.10;8.80;;;12.40;99.90;;;;;;5160808;27;20227;-79
2022/10/02 02:38:01;;;;;;;9.10;8.80;;;12.40;99.90;;;;;;5162487;27;20223;-79
2022/10/02 02:40:31;;;;;;;9.13;8.83;;;12.40;99.90;;;;;;5161288;27;20275;-79
2022/10/02 02:43:06;;;;;;;9.03;8.73;;;12.40;99.90;;;;;;5162124;27;20274;-79
2022/10/02 02:45:38;;;;;;;9.20;8.90;;;12.40;99.90;;;;;;5161233;27;20298;-79
2022/10/02 02:48:11;;;;;;;9.27;8.97;;;12.50;99.90;;;;;;5162482;27;20349;-79
2022/10/02 02:50:44;;;;;;;9.10;8.80;;;12.50;99.90;;;;;;5161647;27;20230;-79
2022/10/02 02:53:16;;;;;;;9.20;8.90;;;12.50;99.90;;;;;;5162406;27;20220;-79
2022/10/02 02:55:48;;;;;;;9.20;8.90;;;12.40;99.90;;;;;;5160858;27;20227;-79
2022/10/02 02:58:22;;;;;;;9.20;8.90;;;12.30;99.90;;;;;;5161091;27;20231;-79
2022/10/02 03:00:50;;;;;;;9.23;8.93;;;12.30;99.90;;;;;;5159560;27;20231;-79
2022/10/02 03:03:17;;;;;;;9.30;9.00;;;12.30;99.90;;;;;;5161314;27;20220;-79
2022/10/02 03:05:49;;;;;;;9.30;9.00;;;12.30;99.90;;;;;;5160564;27;20327;-79
2022/10/02 03:08:26;;;;;;;9.23;8.93;;;12.20;99.90;;;;;;5161475;27;20235;-79
2022/10/02 03:11:07;;;;;;;9.20;8.90;;;12.20;99.90;;;;;;5160625;27;20227;-79
2022/10/02 03:13:52;;;;;;;9.13;8.83;;;12.20;99.90;;;;;;5161725;27;20238;-78
2022/10/02 03:16:36;;;;;;;9.20;8.90;;;12.20;99.90;;;;;;5160475;27;20249;-79
2022/10/02 03:19:17;;;;;;;9.20;8.90;;;12.20;99.90;;;;;;5161119;27;20227;-79
2022/10/02 03:22:00;;;;;;;9.40;9.10;;;12.20;99.90;;;;;;5160322;27;20235;-79
2022/10/02 03:24:32;;;;;;;9.33;9.03;;;12.20;99.90;;;;;;5160212;27;20231;-79
2022/10/02 03:27:07;;;;;;;9.20;8.90;;;12.20;99.90;;;;;;5161958;27;20317;-79
2022/10/02 03:29:42;;;;;;;9.20;8.90;;;12.20;99.90;;;;;;5161043;27;20319;-79
2022/10/02 03:32:11;;;;;;;9.30;9.00;;;12.20;99.90;;;;;;5161388;27;20231;-79
2022/10/02 03:34:42;;;;;;;9.10;8.80;;;12.20;99.90;;;;;;5160715;27;20237;-79
2022/10/02 03:37:10;;;;;;;9.30;9.00;;;12.20;99.90;;;;;;5161747;27;20232;-79
2022/10/02 03:39:41;;;;;;;9.30;9.00;;;12.20;99.90;;;;;;5161003;27;20228;-79
2022/10/02 03:42:12;;;;;;;9.40;9.10;;;12.20;99.90;;;;;;5160772;27;20279;-79
2022/10/02 03:44:42;;;;;;;9.20;8.90;;;12.20;99.90;;;;;;5160637;27;20232;-79
2022/10/02 03:47:11;;;;;;;9.30;9.00;;;12.20;99.90;;;;;;5161620;27;20242;-79
2022/10/02 03:49:39;;;;;;;9.30;9.00;;;12.20;99.90;;;;;;5161447;27;20227;-79
2022/10/02 03:52:07;;;;;;;9.20;8.90;;;12.20;99.90;;;;;;5161309;27;20231;-79
2022/10/02 03:54:36;;;;;;;9.37;9.07;;;12.20;99.90;;;;;;5170769;27;20235;-79
2022/10/02 03:57:07;;;;;;;9.10;8.80;;;12.30;99.90;;;;;;5170084;27;20231;-78
2022/10/02 03:59:51;;;;;;;9.10;8.80;;;12.30;99.90;;;;;;5171506;27;20230;-79
2022/10/02 04:02:30;;;;;;;9.10;8.80;;;12.30;99.90;;;;;;5174693;27;20237;-79
2022/10/02 04:05:05;;;;;;;9.27;8.97;;;12.30;99.90;;;;;;5167833;27;20231;-79
2022/10/02 04:07:38;;;;;;;9.10;8.80;;;12.30;99.90;;;;;;5153115;27;20231;-79
2022/10/02 04:10:29;;;;;;;9.30;9.00;;;12.30;99.90;;;;;;5145459;27;20745;-79
2022/10/02 04:13:08;;;;;;;9.30;9.00;;;12.30;99.90;;;;;;5175310;27;20208;-79
2022/10/02 04:15:55;;;;;;;9.20;8.90;;;12.30;99.90;;;;;;5162345;27;20207;-77
2022/10/02 04:18:29;;;;;;;9.20;8.90;;;12.30;99.90;;;;;;5162618;27;20261;-78
2022/10/02 04:21:00;;;;;;;9.13;8.83;;;12.30;99.90;;;;;;5162093;27;20255;-79
2022/10/02 04:23:33;;;;;;;9.30;9.00;;;12.30;99.90;;;;;;5161899;27;20307;-78
2022/10/02 04:26:06;;;;;;;9.30;9.00;;;12.30;99.90;;;;;;5162020;27;20228;-78
2022/10/02 04:28:39;;;;;;;9.17;8.87;;;12.30;99.90;;;;;;5162610;27;20220;-78
2022/10/02 04:31:13;;;;;;;9.13;8.83;;;12.20;99.90;;;;;;5159818;27;20232;-79
2022/10/02 04:33:41;;;;;;;9.27;8.97;;;12.30;99.90;;;;;;5158562;27;20289;-78
2022/10/02 04:36:35;;;;;;;9.13;8.83;;;12.30;99.90;;;;;;5157250;27;20292;-79
2022/10/02 04:39:20;;;;;;;9.43;9.13;;;12.20;99.90;;;;;;5153986;27;20228;-79
2022/10/02 04:42:07;;;;;;;9.17;8.87;;;12.30;99.90;;;;;;5143940;27;20360;-79
2022/10/02 04:45:08;;;;;;;9.20;8.90;;;12.30;99.90;;;;;;5143416;27;20224;-79
2022/10/02 04:48:14;;;;;;;9.40;9.10;;;12.30;99.90;;;;;;5142978;27;20235;-79
2022/10/02 04:50:51;;;;;;;9.40;9.10;;;12.30;99.90;;;;;;5142118;27;20246;-79
2022/10/02 04:53:44;;;;;;;9.43;9.13;;;12.40;99.90;;;;;;5142527;27;20231;-79
2022/10/02 04:56:37;;;;;;;9.30;9.00;;;12.40;99.90;;;;;;5141445;27;20277;-79
2022/10/02 04:59:23;;;;;;;9.20;8.90;;;12.40;99.90;;;;;;5142959;27;20212;-78
2022/10/02 05:02:07;;;;;;;9.30;9.00;;;12.40;99.90;;;;;;5140618;27;20247;-79
2022/10/02 05:04:58;;;;;;;9.20;8.90;;;12.40;99.90;;;;;;5140401;27;20228;-78
2022/10/02 05:07:45;;;;;;;9.40;9.10;;;12.40;99.90;;;;;;5143061;27;20307;-79
2022/10/02 05:10:49;;;;;;;9.40;9.10;;;12.50;99.90;;;;;;5142584;27;20256;-79
2022/10/02 05:13:38;;;;;;;9.60;9.30;;;12.50;99.90;;;;;;5142687;27;20234;-78
2022/10/02 05:16:24;;;;;;;9.57;9.27;;;12.50;99.90;;;;;;5142908;27;20216;-79
2022/10/02 05:19:35;;;;;;;9.77;9.47;;;12.50;99.90;;;;;;5144276;27;20232;-80
2022/10/02 05:22:47;;;;;;;9.90;9.60;;;12.40;99.90;;;;;;5144274;27;20243;-79
2022/10/02 05:25:35;;;;;;;9.77;9.47;;;12.50;99.90;;;;;;5144474;27;20252;-80
2022/10/02 05:28:48;;;;;;;9.73;9.43;;;12.40;99.90;;;;;;5144265;27;20238;-80
2022/10/02 05:31:32;;;;;;;9.70;9.40;;;12.40;99.90;;;;;;5144158;27;20235;-79
2022/10/02 05:34:34;;;;;;;9.50;9.20;;;12.40;99.90;;;;;;5144920;27;20311;-80
2022/10/02 05:37:21;;;;;;;9.40;9.10;;;12.40;99.90;;;;;;5144980;27;20319;-80
2022/10/02 05:39:57;;;;;;;9.30;9.00;;;12.40;99.90;;;;;;5144581;27;20252;-80
2022/10/02 05:42:34;;;;;;;9.50;9.20;;;12.40;99.90;;;;;;5145332;27;20226;-79
2022/10/02 05:45:12;;;;;;;9.30;9.00;;;12.50;99.90;;;;;;5144345;27;20236;-80
2022/10/02 05:47:45;;;;;;;9.33;9.03;;;12.60;99.90;;;;;;5149292;27;20231;-79
2022/10/02 05:50:19;;;;;;;9.37;9.07;;;12.60;99.90;;;;;;5156339;27;20278;-80
2022/10/02 05:52:55;;;;;;;9.27;8.97;;;12.60;99.90;;;;;;5149878;27;20215;-80
2022/10/02 05:55:32;;;;;;;9.37;9.07;;;12.60;99.90;;;;;;5151497;27;20211;-80
2022/10/02 05:58:08;;;;;;;9.30;9.00;;;12.60;99.90;;;;;;5160902;27;20236;-79
2022/10/02 06:00:42;;;;;;;9.27;8.97;;;12.60;99.90;;;;;;5159595;27;20258;-80
2022/10/02 06:03:18;;;;;;;9.13;8.83;;;12.60;99.90;;;;;;5161043;27;20232;-80
2022/10/02 06:05:55;;;;;;;9.10;8.80;;;12.60;99.90;;;;;;5160844;27;20235;-80
2022/10/02 06:08:32;;;;;;;9.33;9.03;;;12.60;99.90;;;;;;5161192;27;20235;-80
2022/10/02 06:11:10;;;;;;;9.20;8.90;;;12.60;99.90;;;;;;5157377;27;20277;-79
2022/10/02 06:13:45;;;;;;;9.10;8.80;;;12.60;99.90;;;;;;5156585;27;20216;-79
2022/10/02 06:16:19;;;;;;;9.20;8.90;;;12.60;99.90;;;;;;5156062;27;20257;-80
2022/10/02 06:18:56;;;;;;;9.13;8.83;;;12.50;99.90;;;;;;5159415;27;20228;-79
2022/10/02 06:21:34;;;;;;;9.07;8.77;;;12.50;99.90;;;;;;5160481;27;20258;-79
2022/10/02 06:24:07;;;;;;;9.23;8.93;;;12.50;99.90;;;;;;5160661;27;20224;-78
2022/10/02 06:26:45;;;;;;;8.93;8.63;;;12.50;99.90;;;;;;5160064;27;20255;-79
2022/10/02 06:29:20;;;;;;;9.03;8.73;;;12.60;99.90;;;;;;5160450;27;20253;-80
2022/10/02 06:31:57;;;;;;;9.00;8.70;;;12.60;99.90;;;;;;5159332;27;20972;-80
2022/10/02 06:34:25;;;;;;;9.00;8.70;;;12.60;99.90;;;;;;5158820;27;20200;-79
2022/10/02 06:37:30;;;;;;;8.70;8.50;;;12.60;99.90;;;;;;5160085;27;20291;-79
2022/10/02 06:40:44;;;;;;;8.97;8.67;;;12.60;99.90;;;;;;5160326;27;20304;-79
2022/10/02 06:43:49;;;;;;;8.90;8.60;;;12.50;99.90;;;;;;5158470;27;20235;-80
2022/10/02 06:46:29;;;;;;;8.97;8.67;;;12.60;99.90;;;;;;5150490;27;20204;-79
2022/10/02 06:49:06;;;;;;;8.80;8.60;;;12.60;99.90;;;;;;5159317;27;20271;-79
2022/10/02 06:51:55;;;;;;;8.77;8.57;;;12.70;99.90;;;;;;5160198;27;20243;-80
2022/10/02 06:54:48;;;;;;;8.70;8.50;;;12.70;99.90;;;;;;5159428;27;20270;-79
2022/10/02 06:57:34;;;;;;;8.93;8.63;;;12.70;99.90;;;;;;5153203;27;20220;-80
2022/10/02 07:00:17;;;;;;;8.70;8.50;;;12.70;99.90;;;;;;5151079;27;20346;-83
2022/10/02 07:03:31;;;;;;;8.67;8.47;;;12.70;99.90;;;;;;5150499;27;20521;-82
2022/10/02 07:06:50;;;;;;;9.03;8.73;;;12.70;99.90;;;;;;5141212;27;20302;-82
2022/10/02 07:09:46;;;;;;;8.80;8.60;;;12.70;99.90;;;;;;5141525;27;20269;-81
2022/10/02 07:12:34;;;;;;;8.70;8.50;;;12.80;99.90;;;;;;5141696;27;20227;-82
2022/10/02 07:15:24;;;;;;;9.17;8.87;;;12.80;99.90;;;;;;5141569;27;20231;-82
2022/10/02 07:18:08;;;;;;;8.70;8.50;;;12.80;99.90;;;;;;5141609;27;20292;-82
2022/10/02 07:20:58;;;;;;;9.20;8.90;;;12.80;99.90;;;;;;5141285;27;20231;-83
2022/10/02 07:23:44;;;;;;;9.00;8.70;;;12.80;99.90;;;;;;5141878;27;20228;-82
2022/10/02 07:26:40;;;;;;;9.10;8.80;;;12.90;99.90;;;;;;5140842;27;20318;-83
2022/10/02 07:29:35;;;;;;;9.07;8.77;;;12.90;99.90;;;;;;5145956;27;20281;-82
2022/10/02 07:32:41;;;;;;;9.30;9.00;;;12.90;99.90;;;;;;5145635;27;20255;-83
2022/10/02 07:35:35;;;;;;;9.23;8.93;;;12.90;99.90;;;;;;5145405;27;20231;-81
2022/10/02 07:38:43;;;;;;;9.17;8.87;;;12.90;99.90;;;;;;5145708;27;20515;-81
2022/10/02 07:41:37;;;;;;;9.37;9.07;;;13.00;99.90;;;;;;5146133;27;20239;-82
2022/10/02 07:44:32;;;;;;;9.10;8.80;;;13.00;99.90;;;;;;5149301;27;20229;-81
2022/10/02 07:47:12;;;;;;;8.93;8.63;;;13.00;99.90;;;;;;5161426;27;20261;-83
2022/10/02 07:49:52;;;;;;;9.20;8.90;;;13.00;99.90;;;;;;5164003;27;20242;-82
2022/10/02 07:52:35;;;;;;;9.00;8.70;;;13.00;99.90;;;;;;5166646;27;20216;-82
2022/10/02 07:55:15;;;;;;;9.17;8.87;;;13.00;99.90;;;;;;5167299;27;20307;-83
2022/10/02 07:58:01;;;;;;;9.30;9.00;;;13.00;99.90;;;;;;5180671;27;20239;-83
2022/10/02 08:00:32;;;;;;;9.00;8.70;;;13.00;99.90;;;;;;5165568;27;20265;-82
2022/10/02 08:03:09;;;;;;;8.80;8.60;;;13.00;99.90;;;;;;5168123;27;20235;-83
2022/10/02 08:05:47;;;;;;;8.53;8.33;;;13.00;99.90;;;;;;5165841;27;20302;-83
2022/10/02 08:08:25;;;;;;;8.67;8.47;;;13.00;99.90;;;;;;5159855;27;20288;-83
2022/10/02 08:11:03;;;;;;;9.00;8.70;;;13.00;99.90;;;;;;5181749;27;20255;-82
2022/10/02 08:13:35;;;;;;;8.60;8.40;;;13.00;99.90;;;;;;5157705;27;20246;-82
2022/10/02 08:16:05;;;;;;;8.90;8.60;;;13.00;99.90;;;;;;5164335;27;20251;-83
2022/10/02 08:18:41;;;;;;;9.10;8.80;;;13.00;99.90;;;;;;5152277;27;20278;-83
2022/10/02 08:21:19;;;;;;;9.00;8.70;;;12.90;99.90;;;;;;5155638;27;20267;-82
2022/10/02 08:23:58;;;;;;;8.93;8.63;;;13.00;99.90;;;;;;5174316;27;20270;-82
2022/10/02 08:26:35;;;;;;;8.97;8.67;;;13.00;99.90;;;;;;5183812;27;20318;-82
2022/10/02 08:29:08;;;;;;;8.90;8.60;;;13.00;99.90;;;;;;5175685;27;20249;-81
2022/10/02 08:31:36;;;;;;;8.73;8.53;;;13.00;99.90;;;;;;5184154;27;20230;-83
2022/10/02 08:34:17;;;;;;;9.20;8.90;;;13.00;99.90;;;;;;5172829;27;20223;-77
2022/10/02 08:37:12;;;;;;;8.90;8.60;;;13.00;99.90;;;;;;5166351;27;20247;-84
2022/10/02 08:40:21;;;;;;;9.07;8.77;;;13.00;99.90;;;;;;5163859;27;20272;-84
2022/10/02 08:43:47;;;;;;;8.63;8.43;;;13.00;99.90;;;;;;5162711;27;20259;-82
2022/10/02 08:47:15;;;;;;;8.40;8.20;;;13.00;99.90;;;;;;5158071;27;20266;-81
2022/10/02 08:50:49;;;;;;;8.60;8.40;;;13.00;99.90;;;;;;5108209;27;20248;-82
2022/10/02 08:54:27;;;;;;;8.37;8.17;;;13.00;99.90;;;;;;5185923;27;20286;-82
2022/10/02 08:57:20;;;;;;;8.67;8.47;;;12.90;99.90;;;;;;5132402;27;20231;-82
2022/10/02 09:00:09;;;;;;;8.50;8.30;;;12.90;99.90;;;;;;5184917;27;20241;-82
2022/10/02 09:03:23;;;;;;;8.40;8.20;;;12.90;99.90;;;;;;5185997;27;20306;-82
2022/10/02 09:06:53;;;;;;;8.63;8.43;;;12.90;99.90;;;;;;5185636;27;20283;-83
2022/10/02 09:10:44;;;;;;;8.60;8.40;;;12.90;99.90;;;;;;5131540;27;20263;-82
2022/10/02 09:14:13;;;;;;;8.53;8.33;;;12.90;99.90;;;;;;5098519;28;20237;-83
2022/10/02 09:17:08;;;;;;;8.37;8.17;;;12.90;99.90;;;;;;5099258;28;20284;-83
2022/10/02 09:19:55;;;;;;;8.30;8.10;;;12.90;99.90;;;;;;5149968;27;20234;-82
2022/10/02 09:23:19;;;;;;;8.33;8.13;;;12.90;99.90;;;;;;5154288;27;20235;-83
2022/10/02 09:25:56;;;;;;;8.30;8.10;;;12.90;99.90;;;;;;5105243;27;20252;-82
2022/10/02 09:29:22;;;;;;;8.13;7.93;;;13.00;99.90;;;;;;5163953;27;20282;-81
2022/10/02 09:32:42;;;;;;;8.30;8.10;;;13.00;99.90;;;;;;5164761;27;20661;-84
2022/10/02 09:36:12;;;;;;;8.30;8.10;;;13.10;99.90;;;;;;5146169;27;20230;-82
2022/10/02 09:39:18;;;;;;;8.57;8.37;;;13.00;99.90;;;;;;5101347;27;20405;-82
2022/10/02 09:42:31;;;;;;;8.40;8.20;;;13.00;99.90;;;;;;5163142;27;20235;-82
2022/10/02 09:45:52;;;;;;;8.50;8.30;;;13.00;99.90;;;;;;5163806;27;20286;-83
2022/10/02 09:49:15;;;;;;;8.60;8.40;;;13.00;99.90;;;;;;5160389;27;20258;-82
2022/10/02 09:52:39;;;;;;;8.33;8.13;;;13.10;99.90;;;;;;5163350;27;20231;-82
2022/10/02 09:56:10;;;;;;;8.20;8.00;;;13.10;99.90;;;;;;5162044;27;20220;-82
2022/10/02 09:59:31;;;;;;;8.30;8.10;;;13.10;99.90;;;;;;5165671;27;20268;-82
2022/10/02 10:02:44;;;;;;;8.40;8.20;;;13.20;99.90;;;;;;5144287;27;20235;-81
2022/10/02 10:05:55;;;;;;;8.10;7.90;;;13.20;99.90;;;;;;5166474;27;20239;-83
2022/10/02 10:09:00;;;;;;;8.13;7.93;;;13.20;99.90;;;;;;5162474;27;20266;-82
2022/10/02 10:12:14;;;;;;;8.50;8.30;;;13.30;99.90;;;;;;5142031;27;20247;-83
2022/10/02 10:15:19;;;;;;;8.40;8.20;;;13.30;99.90;;;;;;5164783;27;20344;-82
2022/10/02 10:18:42;;;;;;;8.50;8.30;;;13.40;99.90;;;;;;5150731;27;20238;-83
2022/10/02 10:22:05;;;;;;;8.37;8.17;;;13.40;99.90;;;;;;5143273;27;20235;-83
2022/10/02 10:25:34;;;;;;;8.37;8.17;;;13.50;99.90;;;;;;5151513;27;20229;-84
2022/10/02 10:29:14;;;;;;;8.40;8.20;;;13.50;99.90;;;;;;5130515;27;20232;-83
2022/10/02 10:32:31;;;;;;;8.50;8.30;;;13.60;99.90;;;;;;5144501;27;20278;-83
2022/10/02 10:35:24;;;;;;;8.20;8.00;;;13.60;99.90;;;;;;5144093;27;20231;-82
2022/10/02 10:38:33;;;;;;;8.33;8.13;;;13.70;99.90;;;;;;5164798;27;20223;-83
2022/10/02 10:41:51;;;;;;;8.30;8.10;;;13.70;99.90;;;;;;5165429;27;20232;-84
2022/10/02 10:45:04;;;;;;;8.17;7.97;;;13.70;99.90;;;;;;5164270;27;20237;-83
2022/10/02 10:48:02;;;;;;;8.50;8.30;;;13.80;99.90;;;;;;5160574;27;20215;-82
2022/10/02 10:51:15;;;;;;;8.87;8.60;;;13.70;99.90;;;;;;5165024;27;20236;-81
2022/10/02 10:54:27;;;;;;;8.70;8.40;;;13.70;99.90;;;;;;5164467;27;20698;-81
2022/10/02 10:57:08;;;;;;;8.47;8.27;;;13.70;99.90;;;;;;5165503;27;20314;-82
2022/10/02 11:00:17;;;;;;;8.70;8.40;;;13.60;99.90;;;;;;5156071;27;20220;-83
2022/10/02 11:03:15;;;;;;;8.40;8.20;;;13.50;99.90;;;;;;5123697;28;20369;-81
2022/10/02 11:06:37;;;;;;;8.83;8.53;;;13.50;99.90;;;;;;5129334;27;20291;-81
2022/10/02 11:10:00;;;;;;;9.10;8.80;;;13.50;99.90;;;;;;5149763;27;20220;-81
2022/10/02 11:13:11;;;;;;;8.90;8.60;;;13.50;99.90;;;;;;5165013;27;20227;-83
2022/10/02 11:16:33;;;;;;;8.80;8.50;;;13.50;99.90;;;;;;5108927;27;20228;-83
2022/10/02 11:19:39;;;;;;;8.60;8.40;;;13.50;99.90;;;;;;5140800;27;20223;-82
2022/10/02 11:22:43;;;;;;;8.60;8.40;;;13.50;99.90;;;;;;5127279;27;20241;-82
2022/10/02 11:25:40;;;;;;;8.87;8.57;;;13.40;99.90;;;;;;5162559;27;20219;-82
2022/10/02 11:28:45;;;;;;;8.50;8.30;;;13.40;99.90;;;;;;5158472;27;20265;-82
2022/10/02 11:31:32;;;;;;;8.43;8.23;;;13.40;99.90;;;;;;5178277;27;20654;-81
2022/10/02 11:34:39;;;;;;;8.50;8.30;;;13.40;99.90;;;;;;5140734;27;20209;-82
2022/10/02 11:37:43;;;;;;;8.50;8.30;;;13.50;99.90;;;;;;5058230;28;20219;-84
2022/10/02 11:40:46;;;;;;;8.50;8.30;;;13.50;99.90;;;;;;5140321;27;20220;-84
2022/10/02 11:43:33;;;;;;;8.50;8.30;;;13.40;99.90;;;;;;5140834;27;20236;-86
2022/10/02 11:46:38;;;;;;;8.40;8.20;;;13.40;99.90;;;;;;5149352;27;20228;-83
2022/10/02 11:49:44;;;;;;;8.60;8.40;;;13.40;99.90;;;;;;5161708;27;20210;-81
2022/10/02 11:53:22;;;;;;;8.40;8.20;;;13.40;99.90;;;;;;5147604;27;20227;-84
2022/10/02 11:56:13;;;;;;;8.23;8.03;;;13.30;99.90;;;;;;5159041;27;20246;-84
2022/10/02 11:59:07;;;;;;;8.40;8.20;;;13.30;99.90;;;;;;5159027;27;20204;-86
2022/10/02 12:01:44;;;;;;;8.50;8.30;;;13.30;99.90;;;;;;5157568;27;20200;-84
2022/10/02 12:07:43;;;;;;;8.47;8.27;;;13.30;99.90;;;;;;5150189;27;20220;-83
2022/10/02 12:10:35;;;;;;;8.50;8.30;;;13.30;99.90;;;;;;5162103;27;20236;-84
2022/10/02 12:13:30;;;;;;;8.60;8.40;;;13.30;99.90;;;;;;5144418;27;20240;-84
2022/10/02 12:16:15;;;;;;;8.37;8.17;;;13.20;99.90;;;;;;5146685;27;20239;-84
2022/10/02 12:19:02;;;;;;;8.43;8.23;;;13.30;99.90;;;;;;5165022;27;20219;-86
2022/10/02 12:27:57;;;;;;;8.60;8.40;;;13.40;99.90;;;;;;5185599;27;20202;-83
2022/10/02 12:30:46;;;;;;;8.47;8.27;;;13.40;99.90;;;;;;5184653;27;20231;-85
2022/10/02 12:36:57;;;;;;;8.50;8.30;;;13.40;99.90;;;;;;5169471;27;20215;-84
2022/10/02 12:39:49;;;;;;;8.47;8.27;;;13.40;99.90;;;;;;5167398;27;20277;-85
2022/10/02 12:42:44;;;;;;;8.53;8.33;;;13.50;99.90;;;;;;5165971;27;20235;-84
2022/10/02 12:46:12;;;;;;;8.50;8.30;;;13.50;99.90;;;;;;5165113;27;20220;-83
2022/10/02 12:49:18;;;;;;;8.40;8.20;;;13.50;99.90;;;;;;5108548;27;20219;-84
2022/10/02 12:52:08;;;;;;;8.77;8.53;;;13.50;99.90;;;;;;5164997;27;20287;-84
2022/10/02 12:55:46;;;;;;;8.67;8.43;;;13.50;99.90;;;;;;5164414;27;20310;-86
2022/10/02 12:58:25;;;;;;;9.00;8.70;;;13.50;99.90;;;;;;5155849;27;20219;-85
2022/10/02 13:01:21;;;;;;;8.30;8.10;;;13.40;99.90;;;;;;5165122;27;20239;-85
2022/10/02 13:04:42;;;;;;;8.30;8.10;;;13.40;99.90;;;;;;5164059;27;20267;-85
2022/10/02 13:07:56;;;;;;;8.30;8.10;;;13.40;99.90;;;;;;5139275;27;20235;-81
2022/10/02 13:10:26;;;;;;;8.20;8.00;;;13.40;99.90;;;;;;5167382;27;20219;-85
2022/10/02 13:13:23;;;;;;;8.40;8.20;;;13.40;99.90;;;;;;5169997;27;20256;-86
2022/10/02 13:15:59;;;;;;;8.33;8.13;;;13.40;99.90;;;;;;5167934;27;20255;-85
2022/10/02 13:19:09;;;;;;;8.40;8.20;;;13.40;99.90;;;;;;5157571;27;20288;-84
2022/10/02 13:22:01;;;;;;;8.50;8.30;;;13.40;99.90;;;;;;5123375;27;20232;-84
2022/10/02 13:28:16;;;;;;;8.60;8.40;;;13.30;99.90;;;;;;5169274;27;20219;-83
2022/10/02 13:34:13;;;;;;;8.60;8.40;;;13.30;99.90;;;;;;5163731;27;21070;-83
2022/10/02 13:37:01;;;;;;;8.50;8.30;;;13.30;99.90;;;;;;5157024;27;20251;-82
2022/10/02 13:39:54;;;;;;;8.40;8.20;;;13.40;99.90;;;;;;5164897;27;20291;-84
2022/10/02 13:42:43;;;;;;;8.60;8.40;;;13.40;99.90;;;;;;5165747;27;20290;-83
2022/10/02 13:45:21;;;;;;;8.93;8.63;;;13.40;99.90;;;;;;5167150;27;20239;-84
2022/10/02 13:48:02;;;;;;;8.77;8.53;;;13.40;99.90;;;;;;5173632;27;20289;-83
2022/10/02 13:50:46;;;;;;;8.90;8.60;;;13.40;99.90;;;;;;5187647;27;20235;-84
2022/10/02 13:53:52;;;;;;;9.00;8.70;;;13.50;99.90;;;;;;5185964;27;20230;-82
2022/10/02 13:56:36;;;;;;;8.93;8.63;;;13.50;99.90;;;;;;5143354;27;20223;-83
2022/10/02 13:59:23;;;;;;;8.67;8.43;;;13.50;99.90;;;;;;5144111;27;20302;-84
2022/10/02 14:05:17;;;;;;;8.60;8.40;;;13.60;99.90;;;;;;5152605;27;20223;-83
2022/10/02 14:08:12;;;;;;;8.40;8.20;;;13.60;99.90;;;;;;5164410;27;20273;-82
2022/10/02 14:10:59;;;;;;;8.50;8.30;;;13.50;99.90;;;;;;5164179;27;20296;-82
2022/10/02 14:13:48;;;;;;;8.60;8.40;;;13.50;99.90;;;;;;5163218;27;20227;-82
2022/10/02 14:16:32;;;;;;;8.40;8.20;;;13.50;99.90;;;;;;5163449;27;20232;-83
2022/10/02 14:19:50;;;;;;;8.70;8.50;;;13.50;99.90;;;;;;5164315;27;20227;-83
2022/10/02 14:22:41;;;;;;;8.70;8.50;;;13.50;99.90;;;;;;5095583;28;20312;-83
2022/10/02 14:25:39;;;;;;;8.63;8.43;;;13.50;99.90;;;;;;5143519;27;20224;-82
2022/10/02 14:28:34;;;;;;;8.77;8.47;;;13.40;99.90;;;;;;5142485;27;20262;-81
2022/10/02 14:31:58;;;;;;;8.90;8.60;;;13.40;99.90;;;;;;5142456;27;20238;-82
2022/10/02 14:35:01;;;;;;;8.67;8.47;;;13.30;99.90;;;;;;5102777;27;20270;-81
2022/10/02 14:37:56;;;;;;;8.60;8.40;;;13.20;99.90;;;;;;5142255;27;20314;-82
2022/10/02 14:40:34;;;;;;;8.13;7.93;;;13.20;99.90;;;;;;5141696;27;20240;-82
2022/10/02 14:43:21;;;;;;;8.37;8.17;;;13.20;99.90;;;;;;5160273;27;20234;-82
2022/10/02 14:46:25;;;;;;;8.60;8.40;;;13.30;99.90;;;;;;5162300;27;20269;-82
2022/10/02 14:49:31;;;;;;;8.67;8.47;;;13.30;99.90;;;;;;5162932;27;20258;-82
2022/10/02 14:52:35;;;;;;;8.50;8.30;;;13.30;99.90;;;;;;5164666;27;20231;-83
2022/10/02 14:56:07;;;;;;;8.67;8.47;;;13.30;99.90;;;;;;5165702;27;20231;-83
2022/10/02 14:58:52;;;;;;;8.67;8.47;;;13.30;99.90;;;;;;5160221;27;20219;-84
2022/10/02 15:01:33;;;;;;;8.87;8.57;;;13.40;99.90;;;;;;5159640;27;20239;-83
2022/10/02 15:04:28;;;;;;;8.97;8.67;;;13.40;99.90;;;;;;5096822;27;20232;-82